sensor_id;sensor_type;location;lat;lon;timestamp;P1;durP1;ratioP1;P2;durP2;ratioP2
72117;SDS011;59992;47.490;8.736;2023-05-10T00:02:02;1.00;;;0.40;;
72117;SDS011;59992;47.490;8.736;2023-05-10T00:04:53;0.60;;;0.40;;
72117;SDS011;59992;47.490;8.736;2023-05-10T00:07:43;0.30;;;0.30;;
72117;SDS011;59992;47.490;8.736;2023-05-10T00:10:33;0.40;;;0.30;;
72117;SDS011;59992;47.490;8.736;2023-05-10T00:13:24;0.60;;;0.40;;
72117;SDS011;59992;47.490;8.736;2023-05-10T00:16:14;0.50;;;0.30;;
72117;SDS011;59992;47.490;8.736;2023-05-10T00:19:04;0.30;;;0.30;;
72117;SDS011;59992;47.490;8.736;2023-05-10T00:21:55;1.10;;;0.40;;
72117;SDS011;59992;47.490;8.736;2023-05-10T00:24:45;0.70;;;0.40;;
72117;SDS011;59992;47.490;8.736;2023-05-10T00:27:35;0.80;;;0.50;;
72117;SDS011;59992;47.490;8.736;2023-05-10T00:30:26;0.40;;;0.40;;
72117;SDS011;59992;47.490;8.736;2023-05-10T00:33:16;12.80;;;0.60;;
72117;SDS011;59992;47.490;8.736;2023-05-10T00:36:06;2.30;;;0.40;;
72117;SDS011;59992;47.490;8.736;2023-05-10T00:38:57;0.50;;;0.40;;
72117;SDS011;59992;47.490;8.736;2023-05-10T00:41:47;1.60;;;0.60;;
72117;SDS011;59992;47.490;8.736;2023-05-10T00:44:37;0.70;;;0.40;;
72117;SDS011;59992;47.490;8.736;2023-05-10T00:47:27;0.50;;;0.40;;
72117;SDS011;59992;47.490;8.736;2023-05-10T00:50:18;0.90;;;0.40;;
72117;SDS011;59992;47.490;8.736;2023-05-10T00:53:08;0.60;;;0.40;;
72117;SDS011;59992;47.490;8.736;2023-05-10T00:55:59;1.10;;;0.60;;
72117;SDS011;59992;47.490;8.736;2023-05-10T00:58:50;1.70;;;0.40;;
72117;SDS011;59992;47.490;8.736;2023-05-10T01:01:40;2.60;;;0.50;;
72117;SDS011;59992;47.490;8.736;2023-05-10T01:04:30;1.00;;;0.50;;
72117;SDS011;59992;47.490;8.736;2023-05-10T01:07:21;0.50;;;0.40;;
72117;SDS011;59992;47.490;8.736;2023-05-10T01:10:11;1.10;;;0.40;;
72117;SDS011;59992;47.490;8.736;2023-05-10T01:13:02;0.80;;;0.40;;
72117;SDS011;59992;47.490;8.736;2023-05-10T01:15:52;1.60;;;0.40;;
72117;SDS011;59992;47.490;8.736;2023-05-10T01:18:43;0.60;;;0.40;;
72117;SDS011;59992;47.490;8.736;2023-05-10T01:21:38;1.90;;;0.60;;
72117;SDS011;59992;47.490;8.736;2023-05-10T01:24:59;2.10;;;0.70;;
72117;SDS011;59992;47.490;8.736;2023-05-10T01:31:52;1.50;;;0.40;;
72117;SDS011;59992;47.490;8.736;2023-05-10T01:35:02;1.00;;;0.50;;
72117;SDS011;59992;47.490;8.736;2023-05-10T01:37:59;0.80;;;0.60;;
72117;SDS011;59992;47.490;8.736;2023-05-10T01:41:00;5.90;;;0.60;;
72117;SDS011;59992;47.490;8.736;2023-05-10T01:44:00;1.40;;;0.50;;
72117;SDS011;59992;47.490;8.736;2023-05-10T01:47:04;2.30;;;0.40;;
72117;SDS011;59992;47.490;8.736;2023-05-10T01:49:57;2.90;;;0.40;;
72117;SDS011;59992;47.490;8.736;2023-05-10T01:52:53;1.30;;;0.40;;
72117;SDS011;59992;47.490;8.736;2023-05-10T01:55:46;1.20;;;0.50;;
72117;SDS011;59992;47.490;8.736;2023-05-10T01:58:39;0.60;;;0.40;;
72117;SDS011;59992;47.490;8.736;2023-05-10T02:01:32;1.00;;;0.50;;
72117;SDS011;59992;47.490;8.736;2023-05-10T02:04:24;2.40;;;0.40;;
72117;SDS011;59992;47.490;8.736;2023-05-10T02:07:15;0.60;;;0.50;;
72117;SDS011;59992;47.490;8.736;2023-05-10T02:10:08;0.60;;;0.40;;
72117;SDS011;59992;47.490;8.736;2023-05-10T02:12:59;1.90;;;0.50;;
72117;SDS011;59992;47.490;8.736;2023-05-10T02:15:51;1.60;;;0.40;;
72117;SDS011;59992;47.490;8.736;2023-05-10T02:18:43;0.70;;;0.40;;
72117;SDS011;59992;47.490;8.736;2023-05-10T02:21:34;0.70;;;0.50;;
72117;SDS011;59992;47.490;8.736;2023-05-10T02:24:26;1.80;;;0.50;;
72117;SDS011;59992;47.490;8.736;2023-05-10T02:27:17;1.20;;;0.50;;
72117;SDS011;59992;47.490;8.736;2023-05-10T02:30:11;4.10;;;0.50;;
72117;SDS011;59992;47.490;8.736;2023-05-10T02:33:03;2.00;;;0.50;;
72117;SDS011;59992;47.490;8.736;2023-05-10T02:35:54;0.70;;;0.50;;
72117;SDS011;59992;47.490;8.736;2023-05-10T02:38:46;2.10;;;0.40;;
72117;SDS011;59992;47.490;8.736;2023-05-10T02:41:38;1.20;;;0.50;;
72117;SDS011;59992;47.490;8.736;2023-05-10T02:44:29;3.30;;;0.50;;
72117;SDS011;59992;47.490;8.736;2023-05-10T02:47:21;2.20;;;0.60;;
72117;SDS011;59992;47.490;8.736;2023-05-10T02:50:11;1.60;;;0.60;;
72117;SDS011;59992;47.490;8.736;2023-05-10T02:53:03;0.60;;;0.50;;
72117;SDS011;59992;47.490;8.736;2023-05-10T02:55:59;2.40;;;0.40;;
72117;SDS011;59992;47.490;8.736;2023-05-10T02:58:55;1.70;;;0.60;;
72117;SDS011;59992;47.490;8.736;2023-05-10T03:01:45;1.90;;;0.60;;
72117;SDS011;59992;47.490;8.736;2023-05-10T03:04:35;0.50;;;0.50;;
72117;SDS011;59992;47.490;8.736;2023-05-10T03:07:25;2.00;;;0.50;;
72117;SDS011;59992;47.490;8.736;2023-05-10T03:10:15;2.80;;;0.70;;
72117;SDS011;59992;47.490;8.736;2023-05-10T03:13:12;1.70;;;0.60;;
72117;SDS011;59992;47.490;8.736;2023-05-10T03:16:15;1.10;;;0.50;;
72117;SDS011;59992;47.490;8.736;2023-05-10T03:19:12;1.30;;;0.60;;
72117;SDS011;59992;47.490;8.736;2023-05-10T03:22:11;1.20;;;0.70;;
72117;SDS011;59992;47.490;8.736;2023-05-10T03:25:08;1.90;;;0.70;;
72117;SDS011;59992;47.490;8.736;2023-05-10T03:28:00;1.80;;;0.70;;
72117;SDS011;59992;47.490;8.736;2023-05-10T03:30:52;2.60;;;0.90;;
72117;SDS011;59992;47.490;8.736;2023-05-10T03:33:47;4.50;;;1.00;;
72117;SDS011;59992;47.490;8.736;2023-05-10T03:36:38;3.00;;;0.70;;
72117;SDS011;59992;47.490;8.736;2023-05-10T03:39:28;3.70;;;0.60;;
72117;SDS011;59992;47.490;8.736;2023-05-10T03:42:18;1.20;;;0.70;;
72117;SDS011;59992;47.490;8.736;2023-05-10T03:45:09;2.20;;;0.60;;
72117;SDS011;59992;47.490;8.736;2023-05-10T03:48:00;1.70;;;0.80;;
72117;SDS011;59992;47.490;8.736;2023-05-10T03:50:50;0.80;;;0.70;;
72117;SDS011;59992;47.490;8.736;2023-05-10T03:53:40;0.80;;;0.60;;
72117;SDS011;59992;47.490;8.736;2023-05-10T03:56:30;0.90;;;0.70;;
72117;SDS011;59992;47.490;8.736;2023-05-10T03:59:20;1.50;;;0.70;;
72117;SDS011;59992;47.490;8.736;2023-05-10T04:02:10;1.10;;;0.70;;
72117;SDS011;59992;47.490;8.736;2023-05-10T04:05:00;2.60;;;0.90;;
72117;SDS011;59992;47.490;8.736;2023-05-10T04:07:50;1.10;;;0.70;;
72117;SDS011;59992;47.490;8.736;2023-05-10T04:10:40;2.60;;;0.70;;
72117;SDS011;59992;47.490;8.736;2023-05-10T04:13:30;2.50;;;0.70;;
72117;SDS011;59992;47.490;8.736;2023-05-10T04:16:21;2.00;;;0.90;;
72117;SDS011;59992;47.490;8.736;2023-05-10T04:19:11;2.00;;;0.80;;
72117;SDS011;59992;47.490;8.736;2023-05-10T04:22:01;1.10;;;0.80;;
72117;SDS011;59992;47.490;8.736;2023-05-10T04:24:51;1.00;;;0.70;;
72117;SDS011;59992;47.490;8.736;2023-05-10T04:27:42;1.20;;;0.80;;
72117;SDS011;59992;47.490;8.736;2023-05-10T04:30:32;1.00;;;0.70;;
72117;SDS011;59992;47.490;8.736;2023-05-10T04:33:22;2.40;;;0.80;;
72117;SDS011;59992;47.490;8.736;2023-05-10T04:36:13;1.80;;;0.70;;
72117;SDS011;59992;47.490;8.736;2023-05-10T04:39:03;1.20;;;0.90;;
72117;SDS011;59992;47.490;8.736;2023-05-10T04:41:54;3.50;;;0.90;;
72117;SDS011;59992;47.490;8.736;2023-05-10T04:44:44;1.10;;;0.80;;
72117;SDS011;59992;47.490;8.736;2023-05-10T04:47:34;0.80;;;0.70;;
72117;SDS011;59992;47.490;8.736;2023-05-10T04:50:25;2.70;;;0.90;;
72117;SDS011;59992;47.490;8.736;2023-05-10T04:53:15;1.50;;;0.70;;
72117;SDS011;59992;47.490;8.736;2023-05-10T04:56:05;2.00;;;0.60;;
72117;SDS011;59992;47.490;8.736;2023-05-10T04:58:56;0.90;;;0.70;;
72117;SDS011;59992;47.490;8.736;2023-05-10T05:01:46;1.50;;;1.10;;
72117;SDS011;59992;47.490;8.736;2023-05-10T05:04:35;1.90;;;1.00;;
72117;SDS011;59992;47.490;8.736;2023-05-10T05:07:25;1.70;;;1.00;;
72117;SDS011;59992;47.490;8.736;2023-05-10T05:10:18;1.90;;;0.80;;
72117;SDS011;59992;47.490;8.736;2023-05-10T05:13:08;1.40;;;1.10;;
72117;SDS011;59992;47.490;8.736;2023-05-10T05:15:59;3.30;;;1.30;;
72117;SDS011;59992;47.490;8.736;2023-05-10T05:18:50;1.40;;;0.90;;
72117;SDS011;59992;47.490;8.736;2023-05-10T05:21:40;2.50;;;1.10;;
72117;SDS011;59992;47.490;8.736;2023-05-10T05:24:32;1.80;;;1.30;;
72117;SDS011;59992;47.490;8.736;2023-05-10T05:27:25;2.50;;;1.20;;
72117;SDS011;59992;47.490;8.736;2023-05-10T05:30:15;1.60;;;0.90;;
72117;SDS011;59992;47.490;8.736;2023-05-10T05:33:05;2.30;;;1.10;;
72117;SDS011;59992;47.490;8.736;2023-05-10T05:35:55;2.00;;;1.00;;
72117;SDS011;59992;47.490;8.736;2023-05-10T05:38:45;1.60;;;1.10;;
72117;SDS011;59992;47.490;8.736;2023-05-10T05:41:35;2.20;;;1.20;;
72117;SDS011;59992;47.490;8.736;2023-05-10T05:44:25;2.10;;;1.40;;
72117;SDS011;59992;47.490;8.736;2023-05-10T05:47:16;2.30;;;1.30;;
72117;SDS011;59992;47.490;8.736;2023-05-10T05:50:08;2.10;;;1.30;;
72117;SDS011;59992;47.490;8.736;2023-05-10T05:52:59;2.50;;;1.30;;
72117;SDS011;59992;47.490;8.736;2023-05-10T05:55:52;2.50;;;1.50;;
72117;SDS011;59992;47.490;8.736;2023-05-10T05:58:44;2.10;;;1.20;;
72117;SDS011;59992;47.490;8.736;2023-05-10T06:01:34;1.90;;;0.80;;
72117;SDS011;59992;47.490;8.736;2023-05-10T06:04:25;2.60;;;0.70;;
72117;SDS011;59992;47.490;8.736;2023-05-10T06:07:15;1.30;;;0.80;;
72117;SDS011;59992;47.490;8.736;2023-05-10T06:10:06;2.40;;;0.90;;
72117;SDS011;59992;47.490;8.736;2023-05-10T06:12:57;2.20;;;0.80;;
72117;SDS011;59992;47.490;8.736;2023-05-10T06:15:47;1.30;;;1.00;;
72117;SDS011;59992;47.490;8.736;2023-05-10T06:18:38;2.80;;;0.80;;
72117;SDS011;59992;47.490;8.736;2023-05-10T06:21:28;2.50;;;0.80;;
72117;SDS011;59992;47.490;8.736;2023-05-10T06:24:18;2.90;;;1.10;;
72117;SDS011;59992;47.490;8.736;2023-05-10T06:27:09;2.20;;;0.80;;
72117;SDS011;59992;47.490;8.736;2023-05-10T06:29:59;2.10;;;0.90;;
72117;SDS011;59992;47.490;8.736;2023-05-10T06:32:50;1.30;;;0.80;;
72117;SDS011;59992;47.490;8.736;2023-05-10T06:35:40;2.00;;;0.60;;
72117;SDS011;59992;47.490;8.736;2023-05-10T06:38:31;2.70;;;0.60;;
72117;SDS011;59992;47.490;8.736;2023-05-10T06:41:21;1.10;;;0.70;;
72117;SDS011;59992;47.490;8.736;2023-05-10T06:44:12;2.20;;;0.80;;
72117;SDS011;59992;47.490;8.736;2023-05-10T06:47:02;1.00;;;0.60;;
72117;SDS011;59992;47.490;8.736;2023-05-10T06:49:53;3.70;;;0.80;;
72117;SDS011;59992;47.490;8.736;2023-05-10T06:52:43;1.00;;;0.70;;
72117;SDS011;59992;47.490;8.736;2023-05-10T06:55:33;3.50;;;0.70;;
72117;SDS011;59992;47.490;8.736;2023-05-10T06:58:23;0.90;;;0.50;;
72117;SDS011;59992;47.490;8.736;2023-05-10T07:01:13;1.50;;;0.70;;
72117;SDS011;59992;47.490;8.736;2023-05-10T07:04:03;2.40;;;0.50;;
72117;SDS011;59992;47.490;8.736;2023-05-10T07:06:54;1.30;;;0.60;;
72117;SDS011;59992;47.490;8.736;2023-05-10T07:09:45;1.60;;;0.60;;
72117;SDS011;59992;47.490;8.736;2023-05-10T07:12:38;1.40;;;0.60;;
72117;SDS011;59992;47.490;8.736;2023-05-10T07:15:28;0.60;;;0.40;;
72117;SDS011;59992;47.490;8.736;2023-05-10T07:18:19;0.70;;;0.40;;
72117;SDS011;59992;47.490;8.736;2023-05-10T07:21:09;1.00;;;0.60;;
72117;SDS011;59992;47.490;8.736;2023-05-10T07:24:00;1.50;;;0.60;;
72117;SDS011;59992;47.490;8.736;2023-05-10T07:26:50;1.70;;;0.50;;
72117;SDS011;59992;47.490;8.736;2023-05-10T07:29:40;0.60;;;0.50;;
72117;SDS011;59992;47.490;8.736;2023-05-10T07:32:30;1.80;;;0.40;;
72117;SDS011;59992;47.490;8.736;2023-05-10T07:35:20;0.90;;;0.40;;
72117;SDS011;59992;47.490;8.736;2023-05-10T07:38:10;0.50;;;0.40;;
72117;SDS011;59992;47.490;8.736;2023-05-10T07:41:00;0.70;;;0.50;;
72117;SDS011;59992;47.490;8.736;2023-05-10T07:43:50;1.20;;;0.50;;
72117;SDS011;59992;47.490;8.736;2023-05-10T07:46:40;1.70;;;0.40;;
72117;SDS011;59992;47.490;8.736;2023-05-10T07:49:30;1.00;;;0.50;;
72117;SDS011;59992;47.490;8.736;2023-05-10T07:52:20;1.30;;;0.50;;
72117;SDS011;59992;47.490;8.736;2023-05-10T07:55:11;2.70;;;0.50;;
72117;SDS011;59992;47.490;8.736;2023-05-10T07:58:01;0.50;;;0.40;;
72117;SDS011;59992;47.490;8.736;2023-05-10T08:00:52;0.90;;;0.40;;
72117;SDS011;59992;47.490;8.736;2023-05-10T08:03:41;2.20;;;0.50;;
72117;SDS011;59992;47.490;8.736;2023-05-10T08:06:32;1.20;;;0.60;;
72117;SDS011;59992;47.490;8.736;2023-05-10T08:09:22;3.70;;;0.60;;
72117;SDS011;59992;47.490;8.736;2023-05-10T08:12:13;2.00;;;0.60;;
72117;SDS011;59992;47.490;8.736;2023-05-10T08:15:03;2.10;;;0.70;;
72117;SDS011;59992;47.490;8.736;2023-05-10T08:17:54;4.20;;;0.50;;
72117;SDS011;59992;47.490;8.736;2023-05-10T08:20:45;2.30;;;0.50;;
72117;SDS011;59992;47.490;8.736;2023-05-10T08:23:35;1.20;;;0.70;;
72117;SDS011;59992;47.490;8.736;2023-05-10T08:26:26;1.00;;;0.60;;
72117;SDS011;59992;47.490;8.736;2023-05-10T08:29:16;3.10;;;0.70;;
72117;SDS011;59992;47.490;8.736;2023-05-10T08:32:06;4.30;;;0.70;;
72117;SDS011;59992;47.490;8.736;2023-05-10T08:34:56;1.90;;;0.60;;
72117;SDS011;59992;47.490;8.736;2023-05-10T08:37:46;1.60;;;0.70;;
72117;SDS011;59992;47.490;8.736;2023-05-10T08:40:36;2.50;;;0.60;;
72117;SDS011;59992;47.490;8.736;2023-05-10T08:43:38;4.00;;;0.60;;
72117;SDS011;59992;47.490;8.736;2023-05-10T08:46:34;1.20;;;0.50;;
72117;SDS011;59992;47.490;8.736;2023-05-10T08:49:31;1.50;;;0.50;;
72117;SDS011;59992;47.490;8.736;2023-05-10T08:52:22;1.00;;;0.40;;
72117;SDS011;59992;47.490;8.736;2023-05-10T08:55:14;1.40;;;0.70;;
72117;SDS011;59992;47.490;8.736;2023-05-10T08:58:05;1.40;;;0.50;;
72117;SDS011;59992;47.490;8.736;2023-05-10T09:00:55;3.00;;;0.60;;
72117;SDS011;59992;47.490;8.736;2023-05-10T09:03:47;2.00;;;0.70;;
72117;SDS011;59992;47.490;8.736;2023-05-10T09:06:38;1.80;;;0.60;;
72117;SDS011;59992;47.490;8.736;2023-05-10T09:09:28;3.30;;;0.50;;
72117;SDS011;59992;47.490;8.736;2023-05-10T09:12:20;2.20;;;0.60;;
72117;SDS011;59992;47.490;8.736;2023-05-10T09:15:14;4.40;;;0.80;;
72117;SDS011;59992;47.490;8.736;2023-05-10T09:18:06;1.50;;;0.60;;
72117;SDS011;59992;47.490;8.736;2023-05-10T09:20:57;3.40;;;0.80;;
72117;SDS011;59992;47.490;8.736;2023-05-10T09:23:47;4.40;;;0.60;;
72117;SDS011;59992;47.490;8.736;2023-05-10T09:26:47;4.30;;;0.80;;
72117;SDS011;59992;47.490;8.736;2023-05-10T09:29:41;2.60;;;0.70;;
72117;SDS011;59992;47.490;8.736;2023-05-10T09:32:38;1.80;;;0.70;;
72117;SDS011;59992;47.490;8.736;2023-05-10T09:35:30;3.00;;;0.70;;
72117;SDS011;59992;47.490;8.736;2023-05-10T09:38:21;1.50;;;0.60;;
72117;SDS011;59992;47.490;8.736;2023-05-10T09:41:16;3.50;;;0.70;;
72117;SDS011;59992;47.490;8.736;2023-05-10T09:44:08;2.50;;;0.80;;
72117;SDS011;59992;47.490;8.736;2023-05-10T09:46:58;1.50;;;0.80;;
72117;SDS011;59992;47.490;8.736;2023-05-10T09:49:50;4.60;;;0.80;;
72117;SDS011;59992;47.490;8.736;2023-05-10T09:52:50;3.40;;;1.20;;
72117;SDS011;59992;47.490;8.736;2023-05-10T09:55:42;1.30;;;0.70;;
72117;SDS011;59992;47.490;8.736;2023-05-10T09:58:36;3.10;;;0.80;;
72117;SDS011;59992;47.490;8.736;2023-05-10T10:01:26;4.20;;;0.80;;
72117;SDS011;59992;47.490;8.736;2023-05-10T10:04:18;4.40;;;0.90;;
72117;SDS011;59992;47.490;8.736;2023-05-10T10:07:10;2.00;;;0.60;;
72117;SDS011;59992;47.490;8.736;2023-05-10T10:10:00;2.50;;;0.70;;
72117;SDS011;59992;47.490;8.736;2023-05-10T10:12:51;3.00;;;0.80;;
72117;SDS011;59992;47.490;8.736;2023-05-10T10:15:42;1.80;;;0.70;;
72117;SDS011;59992;47.490;8.736;2023-05-10T10:18:34;1.80;;;0.60;;
72117;SDS011;59992;47.490;8.736;2023-05-10T10:21:26;1.60;;;0.70;;
72117;SDS011;59992;47.490;8.736;2023-05-10T10:24:16;3.10;;;0.60;;
72117;SDS011;59992;47.490;8.736;2023-05-10T10:27:11;3.10;;;0.80;;
72117;SDS011;59992;47.490;8.736;2023-05-10T10:30:12;3.40;;;0.80;;
72117;SDS011;59992;47.490;8.736;2023-05-10T10:33:18;2.00;;;0.80;;
72117;SDS011;59992;47.490;8.736;2023-05-10T10:36:22;2.20;;;0.80;;
72117;SDS011;59992;47.490;8.736;2023-05-10T10:39:15;3.80;;;0.70;;
72117;SDS011;59992;47.490;8.736;2023-05-10T10:42:08;2.60;;;0.70;;
72117;SDS011;59992;47.490;8.736;2023-05-10T10:45:10;2.60;;;0.70;;
72117;SDS011;59992;47.490;8.736;2023-05-10T10:48:20;3.90;;;1.00;;
72117;SDS011;59992;47.490;8.736;2023-05-10T10:51:14;4.20;;;0.70;;
72117;SDS011;59992;47.490;8.736;2023-05-10T10:57:12;1.20;;;0.70;;
72117;SDS011;59992;47.490;8.736;2023-05-10T11:03:12;2.90;;;0.60;;
72117;SDS011;59992;47.490;8.736;2023-05-10T11:06:06;2.60;;;0.60;;
72117;SDS011;59992;47.490;8.736;2023-05-10T11:08:57;0.80;;;0.50;;
72117;SDS011;59992;47.490;8.736;2023-05-10T11:11:52;1.70;;;0.70;;
72117;SDS011;59992;47.490;8.736;2023-05-10T11:14:43;4.10;;;0.80;;
72117;SDS011;59992;47.490;8.736;2023-05-10T11:17:40;1.90;;;0.70;;
72117;SDS011;59992;47.490;8.736;2023-05-10T11:20:39;3.30;;;0.50;;
72117;SDS011;59992;47.490;8.736;2023-05-10T11:23:30;2.10;;;0.60;;
72117;SDS011;59992;47.490;8.736;2023-05-10T11:26:36;2.90;;;0.60;;
72117;SDS011;59992;47.490;8.736;2023-05-10T11:29:26;2.10;;;0.70;;
72117;SDS011;59992;47.490;8.736;2023-05-10T11:32:17;1.80;;;0.70;;
72117;SDS011;59992;47.490;8.736;2023-05-10T11:35:10;1.90;;;0.60;;
72117;SDS011;59992;47.490;8.736;2023-05-10T11:38:01;2.20;;;0.70;;
72117;SDS011;59992;47.490;8.736;2023-05-10T11:40:54;2.20;;;0.60;;
72117;SDS011;59992;47.490;8.736;2023-05-10T11:43:45;1.80;;;0.70;;
72117;SDS011;59992;47.490;8.736;2023-05-10T11:46:39;4.00;;;0.60;;
72117;SDS011;59992;47.490;8.736;2023-05-10T11:49:29;3.60;;;0.70;;
72117;SDS011;59992;47.490;8.736;2023-05-10T11:52:21;3.40;;;0.90;;
72117;SDS011;59992;47.490;8.736;2023-05-10T11:55:12;2.40;;;0.70;;
72117;SDS011;59992;47.490;8.736;2023-05-10T11:58:03;3.40;;;0.80;;
72117;SDS011;59992;47.490;8.736;2023-05-10T12:00:54;1.90;;;0.50;;
72117;SDS011;59992;47.490;8.736;2023-05-10T12:03:45;0.90;;;0.50;;
72117;SDS011;59992;47.490;8.736;2023-05-10T12:06:39;3.00;;;0.70;;
72117;SDS011;59992;47.490;8.736;2023-05-10T12:09:31;3.60;;;0.70;;
72117;SDS011;59992;47.490;8.736;2023-05-10T12:12:22;2.90;;;0.80;;
72117;SDS011;59992;47.490;8.736;2023-05-10T12:15:16;4.00;;;1.10;;
72117;SDS011;59992;47.490;8.736;2023-05-10T12:18:09;4.00;;;0.60;;
72117;SDS011;59992;47.490;8.736;2023-05-10T12:21:04;2.40;;;0.60;;
72117;SDS011;59992;47.490;8.736;2023-05-10T12:23:58;2.60;;;0.60;;
72117;SDS011;59992;47.490;8.736;2023-05-10T12:26:50;2.10;;;0.60;;
72117;SDS011;59992;47.490;8.736;2023-05-10T12:29:42;2.50;;;0.60;;
72117;SDS011;59992;47.490;8.736;2023-05-10T12:32:40;2.30;;;0.70;;
72117;SDS011;59992;47.490;8.736;2023-05-10T12:35:33;2.40;;;0.60;;
72117;SDS011;59992;47.490;8.736;2023-05-10T12:38:43;1.80;;;0.60;;
72117;SDS011;59992;47.490;8.736;2023-05-10T12:41:36;3.70;;;0.70;;
72117;SDS011;59992;47.490;8.736;2023-05-10T12:44:26;2.50;;;0.60;;
72117;SDS011;59992;47.490;8.736;2023-05-10T12:47:17;3.60;;;0.60;;
72117;SDS011;59992;47.490;8.736;2023-05-10T12:50:08;2.30;;;0.60;;
72117;SDS011;59992;47.490;8.736;2023-05-10T12:52:59;2.10;;;0.70;;
72117;SDS011;59992;47.490;8.736;2023-05-10T12:55:49;2.00;;;0.60;;
72117;SDS011;59992;47.490;8.736;2023-05-10T12:58:42;4.60;;;0.80;;
72117;SDS011;59992;47.490;8.736;2023-05-10T13:01:35;1.80;;;0.60;;
72117;SDS011;59992;47.490;8.736;2023-05-10T13:04:25;2.00;;;0.70;;
72117;SDS011;59992;47.490;8.736;2023-05-10T13:07:15;3.40;;;0.80;;
72117;SDS011;59992;47.490;8.736;2023-05-10T13:10:07;1.90;;;0.80;;
72117;SDS011;59992;47.490;8.736;2023-05-10T13:12:58;3.00;;;0.80;;
72117;SDS011;59992;47.490;8.736;2023-05-10T13:15:49;5.40;;;0.60;;
72117;SDS011;59992;47.490;8.736;2023-05-10T13:18:39;2.20;;;0.60;;
72117;SDS011;59992;47.490;8.736;2023-05-10T13:21:29;1.50;;;0.60;;
72117;SDS011;59992;47.490;8.736;2023-05-10T13:24:20;4.20;;;0.70;;
72117;SDS011;59992;47.490;8.736;2023-05-10T13:27:11;4.40;;;0.80;;
72117;SDS011;59992;47.490;8.736;2023-05-10T13:30:01;2.30;;;0.90;;
72117;SDS011;59992;47.490;8.736;2023-05-10T13:32:53;2.10;;;0.80;;
72117;SDS011;59992;47.490;8.736;2023-05-10T13:35:43;3.60;;;0.80;;
72117;SDS011;59992;47.490;8.736;2023-05-10T13:38:35;3.20;;;0.70;;
72117;SDS011;59992;47.490;8.736;2023-05-10T13:41:26;2.70;;;0.80;;
72117;SDS011;59992;47.490;8.736;2023-05-10T13:44:16;2.10;;;0.80;;
72117;SDS011;59992;47.490;8.736;2023-05-10T13:47:10;3.60;;;0.90;;
72117;SDS011;59992;47.490;8.736;2023-05-10T13:50:00;4.80;;;1.00;;
72117;SDS011;59992;47.490;8.736;2023-05-10T13:52:52;3.20;;;0.70;;
72117;SDS011;59992;47.490;8.736;2023-05-10T13:55:43;2.60;;;0.80;;
72117;SDS011;59992;47.490;8.736;2023-05-10T13:58:33;1.90;;;0.90;;
72117;SDS011;59992;47.490;8.736;2023-05-10T14:01:24;2.90;;;0.80;;
72117;SDS011;59992;47.490;8.736;2023-05-10T14:04:14;2.30;;;0.80;;
72117;SDS011;59992;47.490;8.736;2023-05-10T14:07:05;3.50;;;1.00;;
72117;SDS011;59992;47.490;8.736;2023-05-10T14:09:55;4.20;;;0.90;;
72117;SDS011;59992;47.490;8.736;2023-05-10T14:12:45;3.10;;;0.90;;
72117;SDS011;59992;47.490;8.736;2023-05-10T14:15:36;2.30;;;1.00;;
72117;SDS011;59992;47.490;8.736;2023-05-10T14:18:27;1.70;;;0.90;;
72117;SDS011;59992;47.490;8.736;2023-05-10T14:21:18;3.10;;;0.90;;
72117;SDS011;59992;47.490;8.736;2023-05-10T14:24:08;2.10;;;1.00;;
72117;SDS011;59992;47.490;8.736;2023-05-10T14:26:59;2.60;;;1.20;;
72117;SDS011;59992;47.490;8.736;2023-05-10T14:29:50;3.70;;;0.80;;
72117;SDS011;59992;47.490;8.736;2023-05-10T14:32:40;2.10;;;0.90;;
72117;SDS011;59992;47.490;8.736;2023-05-10T14:35:30;2.80;;;0.90;;
72117;SDS011;59992;47.490;8.736;2023-05-10T14:38:21;1.90;;;1.10;;
72117;SDS011;59992;47.490;8.736;2023-05-10T14:41:11;3.90;;;1.00;;
72117;SDS011;59992;47.490;8.736;2023-05-10T14:44:03;2.50;;;0.90;;
72117;SDS011;59992;47.490;8.736;2023-05-10T14:46:54;4.50;;;0.80;;
72117;SDS011;59992;47.490;8.736;2023-05-10T14:49:44;5.30;;;0.90;;
72117;SDS011;59992;47.490;8.736;2023-05-10T14:52:35;1.10;;;0.70;;
72117;SDS011;59992;47.490;8.736;2023-05-10T14:55:25;3.60;;;0.70;;
72117;SDS011;59992;47.490;8.736;2023-05-10T14:58:16;2.00;;;0.70;;
72117;SDS011;59992;47.490;8.736;2023-05-10T15:01:07;2.90;;;0.80;;
72117;SDS011;59992;47.490;8.736;2023-05-10T15:03:57;1.80;;;1.00;;
72117;SDS011;59992;47.490;8.736;2023-05-10T15:06:48;2.40;;;0.90;;
72117;SDS011;59992;47.490;8.736;2023-05-10T15:09:38;2.50;;;0.80;;
72117;SDS011;59992;47.490;8.736;2023-05-10T15:12:29;3.70;;;0.70;;
72117;SDS011;59992;47.490;8.736;2023-05-10T15:15:20;3.60;;;0.90;;
72117;SDS011;59992;47.490;8.736;2023-05-10T15:18:10;1.40;;;0.70;;
72117;SDS011;59992;47.490;8.736;2023-05-10T15:21:00;2.00;;;0.70;;
72117;SDS011;59992;47.490;8.736;2023-05-10T15:23:51;2.70;;;0.80;;
72117;SDS011;59992;47.490;8.736;2023-05-10T15:26:42;2.70;;;1.00;;
72117;SDS011;59992;47.490;8.736;2023-05-10T15:29:33;4.00;;;0.70;;
72117;SDS011;59992;47.490;8.736;2023-05-10T15:32:23;6.00;;;0.70;;
72117;SDS011;59992;47.490;8.736;2023-05-10T15:35:13;2.40;;;0.60;;
72117;SDS011;59992;47.490;8.736;2023-05-10T15:38:04;1.60;;;0.60;;
72117;SDS011;59992;47.490;8.736;2023-05-10T15:40:56;2.00;;;0.80;;
72117;SDS011;59992;47.490;8.736;2023-05-10T15:43:46;1.80;;;0.60;;
72117;SDS011;59992;47.490;8.736;2023-05-10T15:46:39;2.40;;;0.70;;
72117;SDS011;59992;47.490;8.736;2023-05-10T15:49:29;2.50;;;0.80;;
72117;SDS011;59992;47.490;8.736;2023-05-10T15:52:21;1.70;;;0.80;;
72117;SDS011;59992;47.490;8.736;2023-05-10T15:55:11;1.70;;;0.70;;
72117;SDS011;59992;47.490;8.736;2023-05-10T15:58:02;1.50;;;0.60;;
72117;SDS011;59992;47.490;8.736;2023-05-10T16:00:53;1.30;;;0.70;;
72117;SDS011;59992;47.490;8.736;2023-05-10T16:03:44;2.30;;;0.80;;
72117;SDS011;59992;47.490;8.736;2023-05-10T16:06:35;1.70;;;0.70;;
72117;SDS011;59992;47.490;8.736;2023-05-10T16:09:25;1.20;;;0.60;;
72117;SDS011;59992;47.490;8.736;2023-05-10T16:12:15;3.50;;;0.60;;
72117;SDS011;59992;47.490;8.736;2023-05-10T16:15:06;1.30;;;0.70;;
72117;SDS011;59992;47.490;8.736;2023-05-10T16:17:57;3.90;;;0.70;;
72117;SDS011;59992;47.490;8.736;2023-05-10T16:20:48;2.40;;;0.70;;
72117;SDS011;59992;47.490;8.736;2023-05-10T16:23:40;2.00;;;0.70;;
72117;SDS011;59992;47.490;8.736;2023-05-10T16:26:32;1.00;;;0.60;;
72117;SDS011;59992;47.490;8.736;2023-05-10T16:29:27;4.80;;;0.80;;
72117;SDS011;59992;47.490;8.736;2023-05-10T16:32:18;1.50;;;0.70;;
72117;SDS011;59992;47.490;8.736;2023-05-10T16:35:09;2.40;;;0.70;;
72117;SDS011;59992;47.490;8.736;2023-05-10T16:37:59;1.30;;;0.70;;
72117;SDS011;59992;47.490;8.736;2023-05-10T16:40:50;2.50;;;0.50;;
72117;SDS011;59992;47.490;8.736;2023-05-10T16:43:40;2.10;;;0.70;;
72117;SDS011;59992;47.490;8.736;2023-05-10T16:46:30;2.50;;;1.10;;
72117;SDS011;59992;47.490;8.736;2023-05-10T16:49:21;2.20;;;0.70;;
72117;SDS011;59992;47.490;8.736;2023-05-10T16:52:11;1.10;;;0.80;;
72117;SDS011;59992;47.490;8.736;2023-05-10T16:55:02;1.40;;;0.60;;
72117;SDS011;59992;47.490;8.736;2023-05-10T16:57:53;3.70;;;0.90;;
72117;SDS011;59992;47.490;8.736;2023-05-10T17:00:47;1.60;;;0.70;;
72117;SDS011;59992;47.490;8.736;2023-05-10T17:03:37;2.00;;;0.70;;
72117;SDS011;59992;47.490;8.736;2023-05-10T17:06:27;3.00;;;0.80;;
72117;SDS011;59992;47.490;8.736;2023-05-10T17:09:18;2.30;;;0.70;;
72117;SDS011;59992;47.490;8.736;2023-05-10T17:12:08;2.30;;;0.70;;
72117;SDS011;59992;47.490;8.736;2023-05-10T17:14:58;0.90;;;0.70;;
72117;SDS011;59992;47.490;8.736;2023-05-10T17:17:49;1.50;;;0.60;;
72117;SDS011;59992;47.490;8.736;2023-05-10T17:20:41;1.90;;;0.80;;
72117;SDS011;59992;47.490;8.736;2023-05-10T17:23:32;2.10;;;0.60;;
72117;SDS011;59992;47.490;8.736;2023-05-10T17:26:23;5.00;;;0.60;;